Time;durP1;ratioP1;P1;durP2;ratioP2;P2;SDS_P1;SDS_P2;PMS_P1;PMS_P2;Temp;Humidity;BMP_temperature;BMP_pressure;BME280_temperature;BME280_humidity;BME280_pressure;Samples;Min_cycle;Max_cycle;Signal;HPM_P1;HPM_P2
2022/05/07 00:01:19;;;;;;;45.63;26.90;;;7.60;99.90;;;;;;6217706;23;20028;-90
2022/05/07 00:04:06;;;;;;;44.20;27.23;;;7.50;99.90;;;;;;6216327;23;20281;-91
2022/05/07 00:06:58;;;;;;;34.72;20.90;;;7.50;99.90;;;;;;6195266;23;20083;-90
2022/05/07 00:09:46;;;;;;;29.08;20.75;;;7.50;99.90;;;;;;6217184;23;20075;-90
2022/05/07 00:12:33;;;;;;;35.72;19.58;;;7.50;99.90;;;;;;6195512;23;20079;-90
2022/05/07 00:15:22;;;;;;;25.00;17.75;;;7.40;99.90;;;;;;6228370;23;20024;-90
2022/05/07 00:18:11;;;;;;;28.73;19.13;;;7.30;99.90;;;;;;6198149;23;20102;-89
2022/05/07 00:20:58;;;;;;;25.52;18.30;;;7.20;99.90;;;;;;6195005;23;20031;-90
2022/05/07 00:23:46;;;;;;;31.17;18.63;;;7.20;99.90;;;;;;6215661;23;20025;-87
2022/05/07 00:26:33;;;;;;;24.10;18.30;;;7.20;99.90;;;;;;6199924;23;20058;-86
2022/05/07 00:29:23;;;;;;;24.27;16.65;;;7.10;99.90;;;;;;6205987;23;20055;-90
2022/05/07 00:32:12;;;;;;;22.30;17.27;;;7.00;99.90;;;;;;6221936;23;20120;-91
2022/05/07 00:35:02;;;;;;;27.10;17.35;;;6.90;99.90;;;;;;6222168;23;20032;-90
2022/05/07 00:37:50;;;;;;;28.40;17.67;;;6.90;99.90;;;;;;6199883;23;20095;-90
2022/05/07 00:40:38;;;;;;;28.40;16.58;;;6.80;99.90;;;;;;6199804;23;20131;-91
2022/05/07 00:43:33;;;;;;;22.25;16.60;;;6.70;99.90;;;;;;6221758;23;20024;-90
2022/05/07 00:46:25;;;;;;;24.20;16.77;;;6.60;99.90;;;;;;6220268;23;20083;-89
2022/05/07 00:49:19;;;;;;;32.75;18.40;;;6.60;99.90;;;;;;6223291;23;20029;-89
2022/05/07 00:52:07;;;;;;;31.63;19.92;;;6.60;99.90;;;;;;6219130;23;20037;-90
2022/05/07 00:54:56;;;;;;;36.80;22.48;;;6.80;99.90;;;;;;6218277;23;20024;-89
2022/05/07 00:57:48;;;;;;;33.13;22.23;;;6.90;99.90;;;;;;6195182;23;20029;-90
2022/05/07 01:00:36;;;;;;;32.10;21.70;;;6.90;99.90;;;;;;6198222;23;20020;-90
2022/05/07 01:03:23;;;;;;;35.75;21.15;;;6.80;99.90;;;;;;6226586;23;20348;-90
2022/05/07 01:06:13;;;;;;;32.40;19.77;;;6.80;99.90;;;;;;6195966;23;20047;-91
2022/05/07 01:09:07;;;;;;;26.00;20.13;;;6.80;99.90;;;;;;6224827;23;20100;-91
2022/05/07 01:11:56;;;;;;;35.35;18.15;;;6.80;99.90;;;;;;6216118;23;20059;-91
2022/05/07 01:14:45;;;;;;;37.03;19.95;;;6.80;99.90;;;;;;6195030;23;20050;-91
2022/05/07 01:17:36;;;;;;;31.00;20.25;;;6.80;99.90;;;;;;6216405;23;20039;-91
2022/05/07 01:20:24;;;;;;;26.60;19.08;;;6.70;99.90;;;;;;6196126;23;20052;-90
2022/05/07 01:23:12;;;;;;;27.73;18.75;;;6.70;99.90;;;;;;6196874;23;20462;-90
2022/05/07 01:26:03;;;;;;;32.25;18.90;;;6.60;99.90;;;;;;6216915;23;20043;-92
2022/05/07 01:28:53;;;;;;;31.45;19.63;;;6.60;99.90;;;;;;6216149;23;20090;-92
2022/05/07 01:31:43;;;;;;;28.38;18.23;;;6.60;99.90;;;;;;6194896;23;20021;-91
2022/05/07 01:34:32;;;;;;;32.47;20.08;;;6.50;99.90;;;;;;6214166;23;20024;-92
2022/05/07 01:37:23;;;;;;;27.02;18.88;;;6.40;99.90;;;;;;6215271;23;20032;-92
2022/05/07 01:40:11;;;;;;;29.70;19.02;;;6.40;99.90;;;;;;6218389;23;20147;-90
2022/05/07 01:43:00;;;;;;;30.95;18.98;;;6.50;99.90;;;;;;6195750;23;20036;-88
2022/05/07 01:45:47;;;;;;;25.08;17.58;;;6.40;99.90;;;;;;6193623;23;20308;-91
2022/05/07 01:48:34;;;;;;;29.20;17.65;;;6.30;99.90;;;;;;6218105;23;20032;-89
2022/05/07 01:51:22;;;;;;;29.02;17.77;;;6.20;99.90;;;;;;6218671;23;20020;-90
2022/05/07 01:54:09;;;;;;;25.02;16.85;;;6.10;99.90;;;;;;6194877;23;20079;-89
2022/05/07 01:56:56;;;;;;;27.08;17.75;;;6.00;99.90;;;;;;6218073;23;20166;-89
2022/05/07 01:59:47;;;;;;;30.30;19.23;;;5.90;99.90;;;;;;6215100;23;20029;-90
2022/05/07 02:02:35;;;;;;;31.90;19.35;;;6.00;99.90;;;;;;6219175;23;20079;-90
2022/05/07 02:05:23;;;;;;;27.92;17.55;;;6.00;99.90;;;;;;6215340;23;20024;-89
2022/05/07 02:08:10;;;;;;;26.30;18.40;;;5.90;99.90;;;;;;6215634;23;20055;-90
2022/05/07 02:11:01;;;;;;;28.20;17.85;;;5.80;99.90;;;;;;6217604;23;20082;-86
2022/05/07 02:13:48;;;;;;;35.83;19.55;;;5.70;99.90;;;;;;6196183;23;20021;-88
2022/05/07 02:16:35;;;;;;;29.27;18.63;;;5.80;99.90;;;;;;6218565;23;20032;-89
2022/05/07 02:19:23;;;;;;;29.88;19.52;;;5.70;99.90;;;;;;6193282;23;20033;-89
2022/05/07 02:22:11;;;;;;;33.28;21.60;;;5.80;99.90;;;;;;6194510;23;20047;-91
2022/05/07 02:24:58;;;;;;;31.80;20.83;;;5.90;99.90;;;;;;6195596;23;20051;-86
2022/05/07 02:27:45;;;;;;;30.35;20.95;;;6.10;99.90;;;;;;6219662;23;20082;-89
2022/05/07 02:30:33;;;;;;;33.00;21.33;;;6.20;99.90;;;;;;6221414;23;20032;-90
2022/05/07 02:33:20;;;;;;;29.27;20.58;;;6.20;99.90;;;;;;6196778;23;20420;-85
2022/05/07 02:36:07;;;;;;;33.72;20.75;;;6.20;99.90;;;;;;6203599;23;20365;-85
2022/05/07 02:38:54;;;;;;;34.67;19.45;;;6.20;99.90;;;;;;6203366;23;20028;-88
2022/05/07 02:44:47;;;;;;;28.17;18.27;;;6.20;99.90;;;;;;6218089;23;20039;-90
2022/05/07 02:47:41;;;;;;;27.25;18.55;;;6.20;99.90;;;;;;6218827;23;20040;-89
2022/05/07 02:50:28;;;;;;;27.73;17.40;;;6.10;99.90;;;;;;6197145;23;20024;-90
2022/05/07 02:53:22;;;;;;;24.98;17.85;;;6.00;99.90;;;;;;6220833;23;20395;-88
2022/05/07 02:56:12;;;;;;;26.98;18.42;;;6.00;99.90;;;;;;6201442;23;20025;-89
2022/05/07 02:58:59;;;;;;;30.63;17.98;;;6.00;99.90;;;;;;6222986;23;20020;-90
2022/05/07 03:01:46;;;;;;;30.42;18.08;;;6.00;99.90;;;;;;6222479;23;20024;-92
2022/05/07 03:04:36;;;;;;;27.95;17.17;;;6.00;99.90;;;;;;6219353;23;20082;-89
2022/05/07 03:07:23;;;;;;;26.33;17.13;;;6.00;99.90;;;;;;6202098;23;20040;-89
2022/05/07 03:10:13;;;;;;;28.63;16.42;;;5.90;99.90;;;;;;6220941;23;20068;-90
2022/05/07 03:13:03;;;;;;;25.20;16.55;;;5.80;99.90;;;;;;6198462;23;20033;-90
2022/05/07 03:15:53;;;;;;;27.08;17.10;;;5.80;99.90;;;;;;6199195;23;20032;-89
2022/05/07 03:18:41;;;;;;;25.10;17.67;;;5.80;99.90;;;;;;6220647;23;20035;-90
2022/05/07 03:21:28;;;;;;;25.95;17.20;;;5.70;99.90;;;;;;6220165;23;20021;-89
2022/05/07 03:24:19;;;;;;;26.45;18.23;;;5.70;99.90;;;;;;6229132;23;20080;-90
2022/05/07 03:27:06;;;;;;;24.48;17.10;;;5.70;99.90;;;;;;6218481;23;20032;-90
2022/05/07 03:29:56;;;;;;;30.45;19.17;;;5.70;99.90;;;;;;6197041;23;20070;-90
2022/05/07 03:32:43;;;;;;;29.38;20.27;;;5.70;99.90;;;;;;6220655;23;20025;-88
2022/05/07 03:35:33;;;;;;;32.72;21.88;;;5.60;99.90;;;;;;6217238;23;20025;-90
2022/05/07 03:38:22;;;;;;;26.08;19.65;;;5.60;99.90;;;;;;6217245;23;20035;-90
2022/05/07 03:41:10;;;;;;;28.58;18.75;;;5.50;99.90;;;;;;6193819;23;20384;-90
2022/05/07 03:43:57;;;;;;;26.20;18.80;;;5.50;99.90;;;;;;6194644;23;20032;-90
2022/05/07 03:46:44;;;;;;;26.35;18.70;;;5.40;99.90;;;;;;6196205;23;20028;-91
2022/05/07 03:49:34;;;;;;;28.05;18.30;;;5.40;99.90;;;;;;6220704;23;20020;-91
2022/05/07 03:55:31;;;;;;;28.38;18.00;;;5.40;99.90;;;;;;6218007;23;20029;-90
2022/05/07 03:58:18;;;;;;;26.97;18.43;;;5.30;99.90;;;;;;6214633;23;20035;-88
2022/05/07 04:01:08;;;;;;;27.63;16.90;;;5.30;99.90;;;;;;6216662;23;20052;-86
2022/05/07 04:03:55;;;;;;;28.58;18.48;;;5.30;99.90;;;;;;6195300;23;20021;-88
2022/05/07 04:06:46;;;;;;;30.15;19.27;;;5.30;99.90;;;;;;6196276;23;20032;-91
2022/05/07 04:09:36;;;;;;;32.45;19.88;;;5.30;99.90;;;;;;6216217;23;20028;-89
2022/05/07 04:12:23;;;;;;;31.23;19.42;;;5.40;99.90;;;;;;6227505;23;20055;-92
2022/05/07 04:15:15;;;;;;;26.98;18.00;;;5.40;99.90;;;;;;6195432;23;20048;-90
2022/05/07 04:18:06;;;;;;;27.95;18.05;;;5.40;99.90;;;;;;6195617;23;20428;-92
2022/05/07 04:20:56;;;;;;;25.58;17.90;;;5.40;99.90;;;;;;6193130;23;20316;-92
2022/05/07 04:23:43;;;;;;;30.15;17.77;;;5.30;99.90;;;;;;6217655;23;20036;-87
2022/05/07 04:26:33;;;;;;;24.27;17.13;;;5.40;99.90;;;;;;6218182;23;20380;-91
2022/05/07 04:29:22;;;;;;;27.98;16.95;;;5.30;99.90;;;;;;6216111;23;20466;-87
2022/05/07 04:32:09;;;;;;;28.17;18.73;;;5.40;99.90;;;;;;6193995;23;20025;-91
2022/05/07 04:34:57;;;;;;;33.30;18.13;;;5.40;99.90;;;;;;6197530;23;20071;-91
2022/05/07 04:37:44;;;;;;;34.40;18.67;;;5.50;99.90;;;;;;6223507;23;20025;-87
2022/05/07 04:40:31;;;;;;;29.38;18.60;;;5.60;99.90;;;;;;6225844;23;20024;-90
2022/05/07 04:43:21;;;;;;;23.42;16.90;;;5.60;99.90;;;;;;6195617;23;20412;-91
2022/05/07 04:46:10;;;;;;;28.05;18.10;;;5.60;99.90;;;;;;6215555;23;20024;-91
2022/05/07 04:48:57;;;;;;;29.40;19.52;;;5.60;99.90;;;;;;6216941;23;20035;-92
2022/05/07 04:51:47;;;;;;;35.28;18.98;;;5.80;99.90;;;;;;6192687;23;20088;-85
2022/05/07 04:54:35;;;;;;;31.10;18.35;;;6.00;99.90;;;;;;6193895;23;20024;-83
2022/05/07 04:57:22;;;;;;;28.88;18.45;;;6.10;99.90;;;;;;6193705;23;20024;-83
2022/05/07 05:00:12;;;;;;;25.83;17.98;;;6.20;99.90;;;;;;6192618;23;20384;-83
2022/05/07 05:02:59;;;;;;;27.92;17.90;;;6.20;99.90;;;;;;6191975;23;20302;-86
2022/05/07 05:05:48;;;;;;;24.25;17.52;;;6.30;99.90;;;;;;6216608;23;20036;-89
2022/05/07 05:08:38;;;;;;;25.00;16.23;;;6.40;99.90;;;;;;6193859;23;20088;-83
2022/05/07 05:12:15;;;;;;;;;;;;;;;;;;;;;
2022/05/07 05:20:39;;;;;;;23.55;15.77;;;6.70;99.90;;;;;;6088355;23;20464;-88
2022/05/07 05:23:51;;;;;;;;;;;;;;;;;;;;;
2022/05/07 05:27:11;;;;;;;;;;;;;;;;;;;;;
2022/05/07 05:34:31;;;;;;;;;;;;;;;;;;;;;
2022/05/07 05:37:54;;;;;;;18.02;12.30;;;7.60;99.90;;;;;;5848034;24;20036;-88
2022/05/07 05:41:08;;;;;;;19.08;12.05;;;7.80;99.90;;;;;;5919971;24;20009;-87
2022/05/07 05:48:47;;;;;;;16.20;11.23;;;8.20;99.90;;;;;;5930763;24;20021;-89
2022/05/07 05:52:17;;;;;;;;;;;;;;;;;;;;;
2022/05/07 05:55:08;;;;;;;12.77;9.27;;;8.40;99.90;;;;;;5928944;24;20053;-89
2022/05/07 05:58:18;;;;;;;;;;;;;;;;;;;;;
2022/05/07 06:01:37;;;;;;;14.07;8.85;;;9.10;99.90;;;;;;6000034;24;20112;-83
2022/05/07 06:05:00;;;;;;;12.18;8.10;;;9.40;99.90;;;;;;5919632;24;20172;-89
2022/05/07 06:08:23;;;;;;;;;;;;;;;;;;;;;
2022/05/07 06:11:51;;;;;;;;;;;;;;;;;;;;;
2022/05/07 06:15:35;;;;;;;10.40;7.55;;;10.10;99.90;;;;;;5904373;24;20041;-87
2022/05/07 06:19:20;;;;;;;;;;;;;;;;;;;;;
2022/05/07 06:22:31;;;;;;;11.85;8.27;;;10.60;99.90;;;;;;5941651;24;20029;-88
2022/05/07 06:28:32;;;;;;;9.30;6.45;;;11.10;99.90;;;;;;6044610;23;20035;-86
2022/05/07 06:32:25;;;;;;;;;;;;;;;;;;;;;
2022/05/07 06:35:22;;;;;;;11.70;6.80;;;11.60;99.90;;;;;;6053781;23;20035;-88
2022/05/07 06:38:13;;;;;;;8.40;6.05;;;12.00;99.90;;;;;;6049558;23;20316;-90
2022/05/07 06:41:04;;;;;;;12.77;6.50;;;12.40;99.90;;;;;;6049836;23;20029;-88
2022/05/07 06:43:52;;;;;;;10.57;6.43;;;12.80;99.90;;;;;;6107626;23;20529;-89
2022/05/07 06:46:39;;;;;;;10.52;5.65;;;13.00;99.90;;;;;;6220444;23;20025;-90
2022/05/07 06:49:29;;;;;;;9.35;5.78;;;13.40;99.90;;;;;;6223097;23;20082;-91
2022/05/07 06:52:18;;;;;;;10.05;6.20;;;13.90;99.90;;;;;;6207964;23;20017;-90
2022/05/07 06:55:19;;;;;;;8.25;5.47;;;14.00;99.90;;;;;;6201960;23;20103;-90
2022/05/07 06:58:09;;;;;;;7.07;5.80;;;14.50;99.90;;;;;;6228372;23;20021;-93
2022/05/07 07:01:13;;;;;;;7.68;5.05;;;14.90;99.90;;;;;;6227568;23;20021;-89
2022/05/07 07:04:03;;;;;;;7.97;5.63;;;14.80;99.90;;;;;;6210380;23;20080;-90
2022/05/07 07:06:50;;;;;;;6.97;4.43;;;15.70;99.90;;;;;;6210542;23;20044;-91
2022/05/07 07:09:42;;;;;;;8.02;4.90;;;16.50;99.90;;;;;;6211393;23;20013;-90
2022/05/07 07:12:29;;;;;;;7.60;5.30;;;17.00;99.90;;;;;;6210727;23;20020;-92
2022/05/07 07:15:24;;;;;;;6.40;4.80;;;16.70;99.90;;;;;;6233848;23;20016;-86
2022/05/07 07:18:11;;;;;;;7.88;4.22;;;17.00;99.90;;;;;;6237581;23;20025;-91
2022/05/07 07:21:01;;;;;;;8.70;4.93;;;17.30;96.70;;;;;;6238193;23;20044;-84
2022/05/07 07:23:53;;;;;;;6.40;4.75;;;17.60;95.50;;;;;;6237661;23;20037;-84
2022/05/07 07:26:40;;;;;;;7.63;4.53;;;18.10;96.00;;;;;;6210580;23;20039;-90
2022/05/07 07:29:30;;;;;;;6.03;4.05;;;18.40;96.30;;;;;;6212912;23;20028;-90
2022/05/07 07:32:24;;;;;;;9.20;4.32;;;19.00;95.90;;;;;;6207764;23;20028;-91
2022/05/07 07:35:17;;;;;;;6.45;4.90;;;19.10;94.30;;;;;;6225945;23;20029;-91
2022/05/07 07:38:08;;;;;;;8.02;4.13;;;19.30;93.80;;;;;;6201870;23;20103;-92
2022/05/07 07:40:55;;;;;;;7.70;4.70;;;19.60;92.20;;;;;;6224317;23;20036;-91
2022/05/07 07:43:46;;;;;;;10.63;4.72;;;20.00;90.60;;;;;;6226827;23;20025;-93
2022/05/07 07:49:42;;;;;;;5.82;4.47;;;20.20;85.30;;;;;;6205321;23;20051;-90
2022/05/07 07:52:30;;;;;;;7.10;4.90;;;20.70;84.90;;;;;;6203926;23;20029;-92
2022/05/07 07:55:27;;;;;;;9.43;4.88;;;21.00;87.60;;;;;;6229311;23;20025;-93
2022/05/07 07:58:18;;;;;;;8.38;6.65;;;21.90;85.40;;;;;;6202063;23;20036;-89
2022/05/07 08:01:09;;;;;;;7.70;6.72;;;21.90;74.90;;;;;;6225688;23;20028;-89
2022/05/07 08:03:59;;;;;;;9.75;6.57;;;21.40;75.30;;;;;;6199301;23;20443;-91
2022/05/07 08:13:07;;;;;;;15.65;7.00;;;21.90;75.40;;;;;;6222345;23;20048;-88
2022/05/07 08:15:54;;;;;;;14.23;6.80;;;21.90;73.50;;;;;;6200258;23;20032;-90
2022/05/07 08:18:42;;;;;;;7.10;5.68;;;22.20;77.80;;;;;;6198418;23;20024;-91
2022/05/07 08:21:31;;;;;;;11.98;7.93;;;22.80;70.20;;;;;;6201578;23;20035;-89
2022/05/07 08:24:22;;;;;;;10.07;7.93;;;22.40;69.50;;;;;;6199897;23;20017;-87
2022/05/07 08:27:09;;;;;;;14.30;7.55;;;22.60;68.00;;;;;;6199712;23;20020;-88
2022/05/07 08:29:59;;;;;;;10.30;6.43;;;22.60;69.20;;;;;;6198445;23;20035;-90
2022/05/07 08:32:50;;;;;;;16.05;9.25;;;23.10;68.20;;;;;;6201410;23;20192;-88
2022/05/07 08:35:47;;;;;;;10.88;8.32;;;22.80;59.40;;;;;;6204869;23;20043;-91
2022/05/07 08:38:59;;;;;;;11.15;8.23;;;22.90;66.20;;;;;;6211596;23;20024;-83
2022/05/07 08:41:48;;;;;;;11.90;8.27;;;23.20;65.10;;;;;;6211810;23;20024;-91
2022/05/07 08:44:40;;;;;;;10.43;8.30;;;22.80;65.10;;;;;;6199653;23;20025;-89
2022/05/07 08:47:29;;;;;;;13.05;6.88;;;22.70;64.00;;;;;;6200862;23;20063;-90
2022/05/07 08:50:18;;;;;;;9.50;6.63;;;22.80;62.50;;;;;;6198963;23;20092;-91
2022/05/07 08:53:08;;;;;;;9.50;6.60;;;23.40;59.90;;;;;;6198798;23;20127;-88
2022/05/07 08:55:57;;;;;;;7.22;5.25;;;22.50;58.70;;;;;;6225136;23;20032;-88
2022/05/07 08:58:54;;;;;;;9.40;4.55;;;22.70;58.80;;;;;;6225771;23;20024;-88
2022/05/07 09:01:43;;;;;;;8.07;5.50;;;22.80;57.00;;;;;;6225095;23;20100;-88
2022/05/07 09:04:33;;;;;;;10.15;6.43;;;23.50;58.30;;;;;;6207731;23;20074;-91
2022/05/07 09:07:26;;;;;;;8.20;5.10;;;23.80;58.10;;;;;;6206911;23;20025;-92
2022/05/07 09:10:26;;;;;;;10.77;5.30;;;24.30;56.10;;;;;;6205736;23;20073;-91
2022/05/07 09:13:20;;;;;;;7.82;4.80;;;24.00;54.80;;;;;;6205370;23;20021;-91
2022/05/07 09:16:14;;;;;;;7.78;5.45;;;22.90;55.30;;;;;;6206746;23;20052;-91
2022/05/07 09:19:01;;;;;;;8.27;4.72;;;22.00;57.60;;;;;;6223167;23;20091;-89
2022/05/07 09:22:07;;;;;;;7.88;4.63;;;21.60;59.20;;;;;;6205050;23;20039;-91
2022/05/07 09:24:57;;;;;;;8.82;5.45;;;20.80;59.80;;;;;;6221739;23;20090;-87
2022/05/07 09:27:45;;;;;;;6.93;5.25;;;20.00;62.50;;;;;;6228193;23;20020;-90
2022/05/07 09:30:38;;;;;;;8.43;5.40;;;19.40;64.40;;;;;;6205201;23;20024;-87
2022/05/07 09:33:38;;;;;;;8.88;5.53;;;18.90;65.80;;;;;;6226337;23;20051;-87
2022/05/07 09:36:25;;;;;;;8.57;6.10;;;18.70;70.40;;;;;;6227882;23;20024;-86
2022/05/07 09:39:15;;;;;;;11.20;6.10;;;18.40;68.40;;;;;;6217873;23;20020;-82
2022/05/07 09:42:03;;;;;;;7.90;5.47;;;18.40;70.50;;;;;;6225748;23;20025;-89
2022/05/07 09:44:50;;;;;;;11.13;5.30;;;18.40;70.70;;;;;;6203650;23;20120;-89
2022/05/07 09:47:38;;;;;;;8.95;4.93;;;18.50;68.40;;;;;;6196648;23;20024;-89
2022/05/07 09:59:45;;;;;;;7.75;4.10;;;19.40;63.90;;;;;;6217831;23;20025;-89
2022/05/07 10:03:00;;;;;;;7.60;3.83;;;19.50;64.70;;;;;;6195937;23;20048;-90
2022/05/07 10:06:26;;;;;;;4.60;2.97;;;19.40;62.30;;;;;;6220261;23;20025;-87
2022/05/07 10:09:26;;;;;;;4.05;2.00;;;19.10;62.00;;;;;;6171568;23;20044;-89
2022/05/07 10:12:21;;;;;;;3.55;2.13;;;18.80;59.30;;;;;;6218061;23;20024;-89
2022/05/07 10:15:12;;;;;;;5.57;2.70;;;18.60;59.20;;;;;;6199620;23;20099;-90
2022/05/07 10:18:07;;;;;;;3.60;1.88;;;18.40;60.70;;;;;;6198876;23;20027;-90
2022/05/07 10:21:09;;;;;;;3.67;1.40;;;19.80;61.50;;;;;;6201378;23;20052;-89
2022/05/07 10:24:02;;;;;;;4.03;1.60;;;20.50;56.80;;;;;;6196626;23;20112;-87
2022/05/07 10:26:50;;;;;;;4.53;1.33;;;20.40;54.70;;;;;;6217388;23;20021;-88
2022/05/07 10:29:38;;;;;;;4.03;2.20;;;20.70;56.90;;;;;;6197557;23;20028;-91
2022/05/07 10:32:30;;;;;;;4.75;2.58;;;22.50;56.50;;;;;;6223596;23;20025;-91
2022/05/07 10:35:37;;;;;;;4.32;2.50;;;23.80;50.50;;;;;;6199587;23;20035;-90
2022/05/07 10:38:37;;;;;;;7.07;2.25;;;24.30;50.30;;;;;;6205944;23;20051;-91
2022/05/07 10:41:24;;;;;;;5.72;2.20;;;25.60;49.50;;;;;;6223110;23;20020;-87
2022/05/07 10:44:35;;;;;;;4.90;2.10;;;26.30;43.80;;;;;;6202044;23;20020;-86
2022/05/07 10:47:23;;;;;;;3.30;2.25;;;26.40;43.90;;;;;;6207873;23;20035;-89
2022/05/07 10:50:12;;;;;;;2.58;1.85;;;26.40;41.70;;;;;;6206643;23;20025;-91
2022/05/07 10:53:01;;;;;;;2.95;1.60;;;26.70;42.80;;;;;;6205659;23;20039;-89
2022/05/07 10:55:54;;;;;;;2.15;1.73;;;28.00;44.20;;;;;;6206132;23;20028;-88
2022/05/07 10:59:02;;;;;;;3.88;2.20;;;28.10;40.50;;;;;;6204209;23;20024;-85
2022/05/07 11:01:50;;;;;;;4.18;2.00;;;28.30;35.60;;;;;;6199984;23;20020;-86
2022/05/07 11:04:45;;;;;;;3.10;2.38;;;28.30;40.80;;;;;;6198931;23;20445;-86
2022/05/07 11:07:32;;;;;;;5.20;1.70;;;27.80;37.80;;;;;;6200228;23;20072;-88
2022/05/07 11:10:22;;;;;;;4.78;2.28;;;28.10;36.30;;;;;;6223057;23;20032;-88
2022/05/07 11:13:15;;;;;;;4.25;1.58;;;27.60;39.60;;;;;;6206195;23;20024;-91
2022/05/07 11:16:06;;;;;;;3.03;1.35;;;27.60;35.90;;;;;;6233491;23;20148;-85
2022/05/07 11:18:56;;;;;;;2.53;1.80;;;26.50;36.50;;;;;;6235033;23;20051;-86
2022/05/07 11:21:47;;;;;;;4.28;1.67;;;26.30;40.20;;;;;;6207728;23;20031;-87
2022/05/07 11:24:34;;;;;;;3.25;1.50;;;27.10;39.30;;;;;;6208922;23;20094;-85
2022/05/07 11:27:27;;;;;;;3.63;2.22;;;27.80;38.50;;;;;;6202468;23;20031;-86
2022/05/07 11:30:17;;;;;;;4.20;2.05;;;26.70;36.80;;;;;;6190657;23;20035;-86
2022/05/07 11:33:07;;;;;;;2.53;1.77;;;25.20;42.90;;;;;;6223296;23;20024;-85
2022/05/07 11:36:08;;;;;;;3.80;2.30;;;24.80;42.10;;;;;;6210212;23;20024;-87
2022/05/07 11:39:00;;;;;;;3.72;2.65;;;24.10;43.80;;;;;;6206034;23;20071;-89
2022/05/07 11:41:57;;;;;;;5.53;2.35;;;23.50;45.00;;;;;;6224337;23;20089;-88
2022/05/07 11:48:14;;;;;;;5.40;2.78;;;22.40;47.90;;;;;;6227603;23;20071;-85
2022/05/07 11:51:06;;;;;;;4.10;2.40;;;22.00;48.50;;;;;;6205500;23;20024;-88
2022/05/07 11:54:18;;;;;;;5.90;2.28;;;22.30;48.50;;;;;;6205499;23;20021;-89
2022/05/07 11:57:06;;;;;;;4.82;2.53;;;23.50;49.80;;;;;;6203597;23;20055;-89
2022/05/07 11:59:53;;;;;;;4.60;1.92;;;24.90;45.20;;;;;;6223740;23;20020;-88
2022/05/07 12:02:57;;;;;;;6.07;1.92;;;25.80;43.70;;;;;;6201754;23;20035;-89
2022/05/07 12:05:50;;;;;;;3.40;2.13;;;26.60;44.70;;;;;;6205162;23;20021;-86
2022/05/07 12:08:52;;;;;;;3.78;2.28;;;27.40;40.10;;;;;;6199806;23;20025;-88
2022/05/07 12:11:42;;;;;;;3.60;1.90;;;27.20;40.40;;;;;;6203703;23;20055;-90
2022/05/07 12:14:35;;;;;;;1.88;1.73;;;28.40;40.20;;;;;;6200199;23;20021;-91
2022/05/07 12:20:33;;;;;;;2.85;2.05;;;28.40;37.90;;;;;;6227647;23;20117;-89
2022/05/07 12:29:54;;;;;;;4.00;2.97;;;27.00;37.00;;;;;;6227334;23;20404;-89
2022/05/07 12:33:13;;;;;;;4.90;2.08;;;28.10;40.40;;;;;;6224612;23;20067;-91
2022/05/07 12:36:13;;;;;;;4.03;2.13;;;29.60;38.40;;;;;;6221477;23;20036;-89
2022/05/07 12:39:08;;;;;;;5.40;2.08;;;29.00;35.60;;;;;;6220566;23;20029;-90
2022/05/07 12:54:21;;;;;;;3.75;1.52;;;29.50;35.30;;;;;;6224866;23;20008;-86
2022/05/07 13:01:20;;;;;;;5.45;1.80;;;28.60;34.40;;;;;;6223237;23;20016;-90
2022/05/07 13:04:08;;;;;;;4.45;1.70;;;28.40;33.90;;;;;;6201874;23;20084;-89
2022/05/07 13:06:59;;;;;;;3.58;2.28;;;26.60;36.70;;;;;;6226150;23;20071;-88
2022/05/07 13:10:00;;;;;;;5.07;2.05;;;25.40;39.40;;;;;;6224158;23;20048;-90
2022/05/07 13:12:47;;;;;;;2.33;1.80;;;24.60;37.70;;;;;;6226040;23;20024;-88
2022/05/07 13:15:54;;;;;;;2.72;1.55;;;24.40;41.70;;;;;;6226748;23;20155;-90
2022/05/07 13:27:07;;;;;;;3.85;1.48;;;26.50;39.00;;;;;;6219051;23;20177;-89
2022/05/07 13:29:55;;;;;;;12.68;2.55;;;28.20;39.00;;;;;;6199750;23;20060;-87
2022/05/07 13:32:46;;;;;;;3.50;1.58;;;27.10;36.30;;;;;;6220902;23;20120;-88
2022/05/07 13:35:34;;;;;;;2.05;1.67;;;25.40;37.60;;;;;;6197988;23;20396;-88
2022/05/07 13:38:24;;;;;;;3.42;1.77;;;23.50;41.70;;;;;;6223129;23;20033;-88
2022/05/07 13:41:18;;;;;;;6.20;2.17;;;22.00;44.00;;;;;;6220760;23;20024;-87
2022/05/07 13:44:10;;;;;;;4.82;2.15;;;21.40;46.40;;;;;;6195694;23;20039;-86
2022/05/07 13:46:59;;;;;;;4.38;1.95;;;21.30;47.80;;;;;;6195750;23;20044;-85
2022/05/07 13:49:46;;;;;;;3.47;1.58;;;22.30;48.20;;;;;;6193157;23;20024;-83
2022/05/07 13:52:54;;;;;;;2.47;1.60;;;24.10;42.40;;;;;;6197567;23;20095;-86
2022/05/07 13:55:42;;;;;;;3.83;1.70;;;25.60;37.30;;;;;;6194863;23;20024;-86
2022/05/07 13:58:30;;;;;;;2.72;1.25;;;26.50;38.50;;;;;;6192762;23;20028;-88
2022/05/07 14:01:17;;;;;;;4.30;2.08;;;27.60;33.20;;;;;;6193864;23;20438;-87
2022/05/07 14:04:04;;;;;;;3.13;1.50;;;26.90;38.00;;;;;;6192952;23;20024;-85
2022/05/07 14:06:53;;;;;;;4.78;1.75;;;25.70;37.10;;;;;;6193876;23;20025;-89
2022/05/07 14:10:03;;;;;;;5.18;1.70;;;24.70;41.00;;;;;;6176730;23;20030;-86
2022/05/07 14:12:51;;;;;;;5.20;1.95;;;23.40;42.50;;;;;;6219158;23;20300;-87
2022/05/07 14:15:38;;;;;;;3.80;2.00;;;22.00;44.50;;;;;;6219382;23;20029;-87
2022/05/07 14:18:26;;;;;;;5.35;1.88;;;21.50;45.80;;;;;;6213545;23;20088;-84
2022/05/07 14:21:13;;;;;;;5.65;1.80;;;21.60;47.30;;;;;;6208357;23;20032;-86
2022/05/07 14:24:05;;;;;;;3.60;1.80;;;23.40;46.60;;;;;;6205163;23;20055;-87
2022/05/07 14:26:56;;;;;;;4.80;1.98;;;25.60;42.20;;;;;;6202265;23;20020;-89
2022/05/07 14:29:43;;;;;;;2.08;1.48;;;27.30;38.60;;;;;;6200741;23;20055;-83
2022/05/07 14:32:31;;;;;;;2.88;1.55;;;28.80;37.10;;;;;;6203043;23;20103;-87
2022/05/07 14:35:21;;;;;;;4.38;1.42;;;29.20;35.40;;;;;;6198693;23;20028;-88
2022/05/07 14:38:08;;;;;;;2.30;1.77;;;29.20;32.80;;;;;;6202088;23;20040;-86
2022/05/07 14:41:01;;;;;;;1.98;1.50;;;28.40;34.80;;;;;;6199314;23;20032;-87
2022/05/07 14:43:49;;;;;;;2.55;1.60;;;27.50;34.60;;;;;;6202185;23;20024;-84
2022/05/07 14:46:38;;;;;;;5.68;1.65;;;27.50;35.30;;;;;;6200733;23;20035;-85
2022/05/07 14:49:27;;;;;;;4.38;1.80;;;26.50;38.60;;;;;;6200428;23;20028;-86
2022/05/07 14:52:15;;;;;;;3.22;1.65;;;25.60;38.90;;;;;;6202668;23;20025;-85
2022/05/07 14:55:10;;;;;;;2.38;1.83;;;24.40;40.00;;;;;;6224089;23;20028;-86
2022/05/07 14:57:57;;;;;;;14.68;2.00;;;22.90;43.50;;;;;;6203606;23;20040;-89
2022/05/07 15:00:48;;;;;;;3.22;1.77;;;22.00;47.00;;;;;;6225579;23;20059;-87
2022/05/07 15:03:36;;;;;;;6.13;1.70;;;21.70;46.60;;;;;;6219053;23;20078;-89
2022/05/07 15:06:24;;;;;;;3.25;1.55;;;22.10;45.90;;;;;;6221410;23;20016;-86
2022/05/07 15:12:23;;;;;;;2.33;1.63;;;22.60;43.50;;;;;;6221110;23;20047;-86
2022/05/07 15:15:10;;;;;;;4.20;1.70;;;22.40;44.70;;;;;;6203100;23;20044;-87
2022/05/07 15:17:57;;;;;;;5.55;2.05;;;21.90;46.10;;;;;;6222404;23;20024;-87
2022/05/07 15:20:49;;;;;;;9.75;2.28;;;21.30;47.40;;;;;;6200444;23;20106;-89
2022/05/07 15:23:44;;;;;;;5.53;2.00;;;21.10;48.00;;;;;;6201545;23;20024;-89
2022/05/07 15:26:31;;;;;;;3.50;1.80;;;21.40;51.30;;;;;;6220534;23;20063;-86
2022/05/07 15:29:25;;;;;;;5.32;2.03;;;21.90;49.10;;;;;;6177534;23;20152;-88
2022/05/07 15:38:34;;;;;;;3.70;1.63;;;23.20;46.00;;;;;;6224689;23;20103;-89
2022/05/07 15:41:24;;;;;;;4.43;1.90;;;23.40;46.40;;;;;;6203618;23;20035;-89
2022/05/07 15:44:16;;;;;;;6.43;1.92;;;23.40;45.50;;;;;;6204207;23;20046;-90
2022/05/07 15:47:09;;;;;;;4.55;2.15;;;23.00;45.50;;;;;;6198779;23;20052;-88
2022/05/07 15:49:56;;;;;;;8.50;2.38;;;22.90;47.30;;;;;;6181925;23;20036;-89
2022/05/07 15:52:48;;;;;;;6.13;2.10;;;23.00;47.50;;;;;;6224302;23;20106;-90
2022/05/07 15:55:35;;;;;;;4.22;2.20;;;22.60;45.50;;;;;;6199759;23;20024;-88
2022/05/07 15:58:25;;;;;;;2.25;1.70;;;22.10;46.40;;;;;;6198181;23;20060;-86
2022/05/07 16:01:14;;;;;;;6.28;2.10;;;21.70;48.30;;;;;;6198611;23;20036;-85
2022/05/07 16:04:02;;;;;;;3.55;2.05;;;21.10;48.50;;;;;;6198084;23;20025;-90
2022/05/07 16:07:02;;;;;;;5.65;2.08;;;21.20;48.20;;;;;;6205885;23;20040;-88
2022/05/07 16:10:07;;;;;;;3.13;2.15;;;21.40;49.40;;;;;;6206614;23;20028;-89
2022/05/07 16:13:01;;;;;;;5.25;2.30;;;21.40;48.50;;;;;;6219981;23;20024;-89
2022/05/07 16:15:57;;;;;;;4.13;2.45;;;21.40;47.80;;;;;;6220241;23;20028;-90
2022/05/07 16:18:45;;;;;;;9.13;4.95;;;21.30;48.30;;;;;;6219454;23;20040;-89
2022/05/07 16:21:34;;;;;;;35.33;25.40;;;21.10;50.10;;;;;;6196642;23;20080;-89
2022/05/07 16:27:31;;;;;;;75.90;49.08;;;20.60;50.80;;;;;;6223054;23;20089;-88
2022/05/07 16:30:24;;;;;;;5.22;3.30;;;20.70;51.50;;;;;;6203414;23;20029;-86
2022/05/07 16:33:11;;;;;;;6.35;4.28;;;20.90;52.60;;;;;;6229357;23;20044;-86
2022/05/07 16:36:16;;;;;;;12.18;7.47;;;20.80;51.20;;;;;;6200401;23;20025;-86
2022/05/07 16:39:10;;;;;;;7.18;2.50;;;20.90;51.00;;;;;;6196219;23;20032;-87